Time;durP1;ratioP1;P1;durP2;ratioP2;P2;SDS_P1;SDS_P2;PMS_P1;PMS_P2;Temp;Humidity;BMP_temperature;BMP_pressure;BME280_temperature;BME280_humidity;BME280_pressure;Samples;Min_cycle;Max_cycle;Signal;HPM_P1;HPM_P2
2021/12/30 00:00:29;;;;;;;4.18;2.28;;;;;;;;;;5129054;27;20562;-73
2021/12/30 00:02:56;;;;;;;5.65;1.50;;;;;;;;;;5129056;27;20031;-72
2021/12/30 00:05:22;;;;;;;4.45;1.52;;;;;;;;;;5114549;27;20024;-73
2021/12/30 00:07:49;;;;;;;3.05;1.20;;;;;;;;;;5132915;27;20019;-72
2021/12/30 00:10:15;;;;;;;4.90;1.17;;;;;;;;;;5129409;27;20023;-72
2021/12/30 00:12:42;;;;;;;4.63;1.77;;;;;;;;;;5129282;27;20107;-72
2021/12/30 00:15:09;;;;;;;4.80;2.28;;;;;;;;;;5129189;27;20031;-72
2021/12/30 00:17:35;;;;;;;5.97;2.00;;;;;;;;;;5129499;27;20020;-72
2021/12/30 00:20:04;;;;;;;11.40;1.73;;;;;;;;;;5131746;27;20025;-72
2021/12/30 00:22:32;;;;;;;4.50;1.50;;;;;;;;;;5129579;27;20039;-73
2021/12/30 00:24:58;;;;;;;6.47;1.65;;;;;;;;;;5128866;27;20381;-72
2021/12/30 00:27:25;;;;;;;7.03;1.40;;;;;;;;;;5129252;27;20042;-72
2021/12/30 00:29:51;;;;;;;4.13;1.10;;;;;;;;;;5129130;27;20015;-72
2021/12/30 00:32:18;;;;;;;6.75;1.10;;;;;;;;;;5130243;28;20032;-72
2021/12/30 00:34:44;;;;;;;2.10;1.05;;;;;;;;;;5131482;28;20015;-72
2021/12/30 00:37:10;;;;;;;5.38;1.42;;;;;;;;;;5128727;28;20033;-73
2021/12/30 00:39:37;;;;;;;5.03;1.20;;;;;;;;;;5128830;28;20027;-72
2021/12/30 00:42:03;;;;;;;4.35;1.30;;;;;;;;;;5128583;28;20025;-72
2021/12/30 00:44:30;;;;;;;5.13;1.00;;;;;;;;;;5112087;28;20113;-72
2021/12/30 00:46:58;;;;;;;3.55;1.13;;;;;;;;;;5131799;28;20096;-72
2021/12/30 00:49:25;;;;;;;6.60;1.55;;;;;;;;;;5113915;28;20508;-72
2021/12/30 00:51:52;;;;;;;4.35;1.40;;;;;;;;;;5112886;28;20034;-72
2021/12/30 00:54:19;;;;;;;5.20;1.10;;;;;;;;;;5113076;28;20490;-72
2021/12/30 00:56:45;;;;;;;3.95;1.15;;;;;;;;;;5111255;28;20035;-72
2021/12/30 00:59:12;;;;;;;4.40;0.70;;;;;;;;;;5111685;28;20024;-72
2021/12/30 01:01:38;;;;;;;3.60;0.80;;;;;;;;;;5121322;28;20027;-72
2021/12/30 01:04:05;;;;;;;3.28;0.80;;;;;;;;;;5114895;28;20035;-72
2021/12/30 01:06:32;;;;;;;4.00;1.10;;;;;;;;;;5112468;28;20019;-73
2021/12/30 01:08:59;;;;;;;2.33;0.80;;;;;;;;;;5113037;28;20026;-72
2021/12/30 01:11:26;;;;;;;2.72;0.68;;;;;;;;;;5108477;28;20015;-72
2021/12/30 01:14:10;;;;;;;2.83;0.70;;;;;;;;;;5117939;27;20024;-72
2021/12/30 01:16:42;;;;;;;3.42;0.82;;;;;;;;;;5118087;27;20031;-72
2021/12/30 01:21:47;;;;;;;3.33;0.88;;;;;;;;;;5116231;27;20042;-72
2021/12/30 01:24:13;;;;;;;3.00;0.60;;;;;;;;;;5118048;27;20033;-72
2021/12/30 01:26:40;;;;;;;6.18;0.85;;;;;;;;;;5095998;27;20032;-72
2021/12/30 01:29:06;;;;;;;2.72;0.60;;;;;;;;;;5116825;27;20436;-72
2021/12/30 01:31:33;;;;;;;3.75;0.93;;;;;;;;;;5117991;27;20039;-72
2021/12/30 01:33:59;;;;;;;5.90;0.98;;;;;;;;;;5116150;27;20027;-72
2021/12/30 01:36:27;;;;;;;4.30;1.25;;;;;;;;;;5116286;27;20026;-72
2021/12/30 01:38:54;;;;;;;2.83;0.60;;;;;;;;;;5115910;27;20023;-72
2021/12/30 01:41:22;;;;;;;3.97;0.90;;;;;;;;;;5112726;28;20038;-73
2021/12/30 01:43:48;;;;;;;4.18;0.82;;;;;;;;;;5119563;27;20498;-72
2021/12/30 01:46:15;;;;;;;4.35;1.15;;;;;;;;;;5115835;27;20043;-72
2021/12/30 01:48:42;;;;;;;3.90;0.73;;;;;;;;;;5111455;28;20016;-72
2021/12/30 01:51:10;;;;;;;5.00;0.70;;;;;;;;;;5111321;28;20498;-72
2021/12/30 01:53:37;;;;;;;6.90;0.88;;;;;;;;;;5111698;28;20393;-72
2021/12/30 01:56:04;;;;;;;1.27;0.50;;;;;;;;;;5113754;28;20039;-72
2021/12/30 01:58:31;;;;;;;3.05;0.70;;;;;;;;;;5094634;28;20026;-72
2021/12/30 02:00:58;;;;;;;3.50;0.55;;;;;;;;;;5111271;28;20510;-72
2021/12/30 02:03:24;;;;;;;2.67;0.50;;;;;;;;;;5112342;28;20036;-73
2021/12/30 02:05:51;;;;;;;1.85;0.50;;;;;;;;;;5111072;28;20062;-72
2021/12/30 02:08:18;;;;;;;1.15;0.60;;;;;;;;;;5112028;28;20024;-72
2021/12/30 02:10:46;;;;;;;1.15;0.45;;;;;;;;;;5095770;28;20081;-72
2021/12/30 02:13:14;;;;;;;2.60;0.50;;;;;;;;;;5110902;28;20027;-72
2021/12/30 02:15:41;;;;;;;3.33;0.30;;;;;;;;;;5111076;28;20006;-72
2021/12/30 02:18:07;;;;;;;2.17;0.40;;;;;;;;;;5110518;28;20417;-72
2021/12/30 02:20:47;;;;;;;2.20;0.40;;;;;;;;;;5111368;28;20027;-73
2021/12/30 02:23:18;;;;;;;1.42;0.30;;;;;;;;;;5112367;28;20048;-72
2021/12/30 02:25:45;;;;;;;0.75;0.40;;;;;;;;;;5113549;28;20080;-72
2021/12/30 02:28:12;;;;;;;0.65;0.30;;;;;;;;;;5110885;28;20477;-72
2021/12/30 02:30:40;;;;;;;1.08;0.30;;;;;;;;;;5111022;28;20035;-72
2021/12/30 02:33:07;;;;;;;6.40;0.50;;;;;;;;;;5092216;28;20484;-72
2021/12/30 02:35:33;;;;;;;1.50;0.40;;;;;;;;;;5110800;28;20382;-72
2021/12/30 02:38:00;;;;;;;5.10;0.52;;;;;;;;;;5113371;28;20023;-73
2021/12/30 02:40:28;;;;;;;2.25;0.45;;;;;;;;;;5111865;28;20477;-73
2021/12/30 02:42:55;;;;;;;1.38;0.40;;;;;;;;;;5111790;28;20027;-72
2021/12/30 02:45:21;;;;;;;0.45;0.20;;;;;;;;;;5113523;27;20084;-72
2021/12/30 02:47:48;;;;;;;0.30;0.20;;;;;;;;;;5108332;27;20042;-72
2021/12/30 02:50:14;;;;;;;1.27;0.43;;;;;;;;;;5113320;27;20486;-72
2021/12/30 02:52:40;;;;;;;0.95;0.30;;;;;;;;;;5117435;27;20026;-72
2021/12/30 02:55:07;;;;;;;0.40;0.25;;;;;;;;;;5114895;27;20030;-72
2021/12/30 02:57:33;;;;;;;0.45;0.35;;;;;;;;;;5115083;27;20023;-72
2021/12/30 03:00:00;;;;;;;1.05;0.30;;;;;;;;;;5114845;27;20015;-72
2021/12/30 03:02:26;;;;;;;0.25;0.25;;;;;;;;;;5110170;28;20030;-72
2021/12/30 03:04:53;;;;;;;1.23;0.30;;;;;;;;;;5117714;27;20020;-72
2021/12/30 03:07:19;;;;;;;3.42;0.45;;;;;;;;;;5116334;27;20035;-72
2021/12/30 03:09:46;;;;;;;0.20;0.13;;;;;;;;;;5114563;27;20016;-72
2021/12/30 03:12:12;;;;;;;1.73;0.30;;;;;;;;;;5114530;27;20557;-72
2021/12/30 03:14:40;;;;;;;0.90;0.30;;;;;;;;;;5112531;27;20023;-72
2021/12/30 03:17:06;;;;;;;0.30;0.30;;;;;;;;;;5114039;27;20038;-72
2021/12/30 03:19:33;;;;;;;0.63;0.20;;;;;;;;;;5115584;27;20385;-72
2021/12/30 03:22:00;;;;;;;0.77;0.45;;;;;;;;;;5115549;27;20032;-72
2021/12/30 03:24:26;;;;;;;0.73;0.30;;;;;;;;;;5114187;27;20012;-72
2021/12/30 03:26:53;;;;;;;2.33;0.40;;;;;;;;;;5114174;27;20019;-72
2021/12/30 03:29:19;;;;;;;1.85;0.50;;;;;;;;;;5110578;28;20022;-73
2021/12/30 03:31:46;;;;;;;2.83;0.35;;;;;;;;;;5117114;27;20034;-72
2021/12/30 03:34:13;;;;;;;3.92;0.40;;;;;;;;;;5113995;27;20080;-72
2021/12/30 03:36:39;;;;;;;2.88;0.70;;;;;;;;;;5113328;27;20402;-72
2021/12/30 03:39:06;;;;;;;0.50;0.40;;;;;;;;;;5114275;27;20374;-72
2021/12/30 03:41:32;;;;;;;1.60;0.40;;;;;;;;;;5110548;27;20028;-72
2021/12/30 03:44:00;;;;;;;1.75;0.20;;;;;;;;;;5097022;28;20036;-72
2021/12/30 03:46:27;;;;;;;0.57;0.40;;;;;;;;;;5115640;27;20046;-72
2021/12/30 03:48:54;;;;;;;0.65;0.30;;;;;;;;;;5109108;28;20048;-72
2021/12/30 03:51:24;;;;;;;1.60;0.40;;;;;;;;;;5108704;28;20490;-72
2021/12/30 03:53:52;;;;;;;1.00;0.40;;;;;;;;;;5108721;28;20030;-72
2021/12/30 03:56:20;;;;;;;0.77;0.43;;;;;;;;;;5109913;28;20028;-72
2021/12/30 03:58:47;;;;;;;0.60;0.30;;;;;;;;;;5112433;28;20016;-72
2021/12/30 04:01:15;;;;;;;0.77;0.50;;;;;;;;;;5109777;28;20065;-72
2021/12/30 04:03:42;;;;;;;2.05;0.60;;;;;;;;;;5109037;28;20042;-72
2021/12/30 04:06:08;;;;;;;2.28;0.65;;;;;;;;;;5108675;28;20034;-72
2021/12/30 04:08:35;;;;;;;1.60;0.35;;;;;;;;;;5108845;28;20435;-72
2021/12/30 04:11:01;;;;;;;0.93;0.47;;;;;;;;;;5111181;28;20020;-72
2021/12/30 04:13:28;;;;;;;0.35;0.25;;;;;;;;;;5110043;28;20379;-72
2021/12/30 04:15:54;;;;;;;1.23;0.30;;;;;;;;;;5108140;28;20016;-72
2021/12/30 04:18:21;;;;;;;0.57;0.40;;;;;;;;;;5108933;28;20043;-72
2021/12/30 04:20:47;;;;;;;1.42;0.40;;;;;;;;;;5108766;28;20007;-72
2021/12/30 04:23:14;;;;;;;2.47;0.43;;;;;;;;;;5092268;28;20074;-72
2021/12/30 04:25:40;;;;;;;1.27;0.40;;;;;;;;;;5110923;28;20024;-72
2021/12/30 04:28:07;;;;;;;0.60;0.40;;;;;;;;;;5108082;28;20034;-72
2021/12/30 04:30:33;;;;;;;2.15;0.50;;;;;;;;;;5108318;28;20393;-72
2021/12/30 04:33:00;;;;;;;1.15;0.45;;;;;;;;;;5108826;28;20030;-72
2021/12/30 04:35:26;;;;;;;0.40;0.40;;;;;;;;;;5108783;28;20034;-73
2021/12/30 04:37:53;;;;;;;0.73;0.47;;;;;;;;;;5112061;28;20045;-72
2021/12/30 04:40:19;;;;;;;1.30;0.50;;;;;;;;;;5108817;28;20023;-72
2021/12/30 04:42:46;;;;;;;1.02;0.32;;;;;;;;;;5108031;28;20031;-72
2021/12/30 04:45:12;;;;;;;1.40;0.50;;;;;;;;;;5110009;28;20072;-72
2021/12/30 04:47:40;;;;;;;1.42;0.40;;;;;;;;;;5126565;27;20032;-72
2021/12/30 04:50:08;;;;;;;1.83;0.40;;;;;;;;;;5117388;27;20030;-72
2021/12/30 04:52:34;;;;;;;1.17;0.40;;;;;;;;;;5118564;27;20038;-72
2021/12/30 04:55:00;;;;;;;3.33;0.40;;;;;;;;;;5117138;27;20030;-72
2021/12/30 04:57:27;;;;;;;1.80;0.30;;;;;;;;;;5117036;27;20026;-72
2021/12/30 04:59:53;;;;;;;2.67;0.40;;;;;;;;;;5116461;27;20594;-72
2021/12/30 05:02:19;;;;;;;2.15;0.60;;;;;;;;;;5113666;27;20038;-72
2021/12/30 05:04:46;;;;;;;1.83;0.40;;;;;;;;;;5120241;27;20032;-72
2021/12/30 05:07:12;;;;;;;1.98;0.70;;;;;;;;;;5116927;27;20016;-72
2021/12/30 05:09:39;;;;;;;1.48;0.90;;;;;;;;;;5098631;28;20424;-72
2021/12/30 05:12:05;;;;;;;1.08;0.70;;;;;;;;;;5116477;27;20034;-72
2021/12/30 05:14:32;;;;;;;1.02;0.75;;;;;;;;;;5113550;27;20028;-72
2021/12/30 05:17:03;;;;;;;0.77;0.63;;;;;;;;;;5118463;27;20016;-72
2021/12/30 05:19:30;;;;;;;1.60;0.85;;;;;;;;;;5119546;27;20027;-72
2021/12/30 05:21:57;;;;;;;1.30;0.50;;;;;;;;;;5110861;28;20040;-72
2021/12/30 05:24:23;;;;;;;0.73;0.45;;;;;;;;;;5116782;27;20011;-73
2021/12/30 05:26:50;;;;;;;0.93;0.47;;;;;;;;;;5115713;27;20029;-72
2021/12/30 05:29:16;;;;;;;1.77;0.55;;;;;;;;;;5114115;27;20015;-72
2021/12/30 05:31:42;;;;;;;0.85;0.40;;;;;;;;;;5119037;27;20023;-73
2021/12/30 05:34:09;;;;;;;4.43;0.50;;;;;;;;;;5116420;27;20084;-72
2021/12/30 05:36:35;;;;;;;0.35;0.28;;;;;;;;;;5116213;27;20389;-72
2021/12/30 05:39:02;;;;;;;0.43;0.30;;;;;;;;;;5111475;27;20447;-72
2021/12/30 05:41:29;;;;;;;0.60;0.20;;;;;;;;;;5127743;27;20031;-72
2021/12/30 05:43:56;;;;;;;0.80;0.35;;;;;;;;;;5118658;27;20028;-72
2021/12/30 05:46:22;;;;;;;0.85;0.32;;;;;;;;;;5116546;27;20566;-72
2021/12/30 05:48:49;;;;;;;3.10;0.70;;;;;;;;;;5111269;28;20038;-72
2021/12/30 05:51:15;;;;;;;1.85;0.50;;;;;;;;;;5111369;28;20057;-72
2021/12/30 05:53:42;;;;;;;3.28;0.60;;;;;;;;;;5111289;28;20030;-72
2021/12/30 05:56:08;;;;;;;1.77;0.50;;;;;;;;;;5112147;28;20016;-72
2021/12/30 05:58:34;;;;;;;1.88;0.60;;;;;;;;;;5114247;28;20053;-72
2021/12/30 06:01:01;;;;;;;2.40;0.85;;;;;;;;;;5110873;28;20397;-72
2021/12/30 06:03:27;;;;;;;3.80;0.80;;;;;;;;;;5110853;28;20032;-72
2021/12/30 06:05:53;;;;;;;3.55;0.90;;;;;;;;;;5111263;28;20052;-72
2021/12/30 06:08:20;;;;;;;4.68;0.60;;;;;;;;;;5111956;28;20516;-72
2021/12/30 06:10:46;;;;;;;3.92;0.68;;;;;;;;;;5113602;28;20084;-72
2021/12/30 06:13:13;;;;;;;4.00;1.27;;;;;;;;;;5110829;28;20031;-72
2021/12/30 06:15:40;;;;;;;4.72;1.60;;;;;;;;;;5111053;28;20031;-73
2021/12/30 06:18:06;;;;;;;2.83;1.00;;;;;;;;;;5111060;28;20478;-72
2021/12/30 06:20:33;;;;;;;4.35;1.20;;;;;;;;;;5111040;28;20478;-72
2021/12/30 06:22:59;;;;;;;4.20;1.10;;;;;;;;;;5113509;28;20035;-72
2021/12/30 06:25:26;;;;;;;5.00;1.20;;;;;;;;;;5112413;28;20088;-73
2021/12/30 06:27:52;;;;;;;6.97;1.08;;;;;;;;;;5110458;28;20019;-72
2021/12/30 06:30:18;;;;;;;7.70;1.50;;;;;;;;;;5110533;28;20550;-72
2021/12/30 06:32:45;;;;;;;9.27;1.40;;;;;;;;;;5110794;28;20012;-72
2021/12/30 06:35:12;;;;;;;2.20;0.80;;;;;;;;;;5112088;28;20023;-72
2021/12/30 06:37:38;;;;;;;3.78;1.17;;;;;;;;;;5114127;28;20028;-72
2021/12/30 06:40:06;;;;;;;5.35;2.08;;;;;;;;;;5110203;28;20084;-72
2021/12/30 06:42:32;;;;;;;7.13;3.35;;;;;;;;;;5110174;28;20040;-72
2021/12/30 06:44:59;;;;;;;5.65;1.95;;;;;;;;;;5110323;28;20478;-73
2021/12/30 06:47:25;;;;;;;5.07;1.90;;;;;;;;;;5110598;28;20036;-72
2021/12/30 06:49:58;;;;;;;5.03;2.40;;;;;;;;;;5109972;28;20027;-73
2021/12/30 06:52:25;;;;;;;7.80;2.00;;;;;;;;;;5111210;28;20028;-72
2021/12/30 06:54:51;;;;;;;5.13;2.03;;;;;;;;;;5110387;27;20012;-72
2021/12/30 06:57:17;;;;;;;6.90;2.63;;;;;;;;;;5110840;27;20038;-72
2021/12/30 06:59:44;;;;;;;5.55;2.42;;;;;;;;;;5110826;27;20026;-72
2021/12/30 07:02:10;;;;;;;6.15;1.95;;;;;;;;;;5112239;28;20041;-72
2021/12/30 07:04:38;;;;;;;8.02;1.48;;;;;;;;;;5111597;28;20032;-72
2021/12/30 07:07:04;;;;;;;7.70;1.48;;;;;;;;;;5110189;28;20489;-72
2021/12/30 07:09:31;;;;;;;5.65;1.50;;;;;;;;;;5110014;28;20034;-71
2021/12/30 07:11:57;;;;;;;4.35;1.35;;;;;;;;;;5108762;28;20034;-72
2021/12/30 07:14:25;;;;;;;6.70;1.70;;;;;;;;;;5095400;28;20478;-72
2021/12/30 07:16:52;;;;;;;5.28;1.92;;;;;;;;;;5109251;28;20042;-72
2021/12/30 07:19:18;;;;;;;3.40;1.48;;;;;;;;;;5109764;28;20030;-72
2021/12/30 07:21:44;;;;;;;10.40;3.53;;;;;;;;;;5109797;28;20107;-72
2021/12/30 07:24:11;;;;;;;7.57;3.63;;;;;;;;;;5109263;28;20037;-72
2021/12/30 07:26:37;;;;;;;7.65;3.60;;;;;;;;;;5109787;28;20024;-72
2021/12/30 07:29:04;;;;;;;8.65;2.85;;;;;;;;;;5112274;28;20019;-72
2021/12/30 07:31:31;;;;;;;5.78;2.00;;;;;;;;;;5110630;28;20039;-72
2021/12/30 07:33:57;;;;;;;7.53;1.90;;;;;;;;;;5109364;28;20466;-72
2021/12/30 07:36:24;;;;;;;7.57;2.40;;;;;;;;;;5109402;28;20015;-72
2021/12/30 07:38:50;;;;;;;10.60;2.58;;;;;;;;;;5109401;28;20030;-73
2021/12/30 07:41:17;;;;;;;6.53;2.58;;;;;;;;;;5110549;28;20486;-72
2021/12/30 07:43:43;;;;;;;11.57;4.50;;;;;;;;;;5111762;28;20482;-72
2021/12/30 07:46:11;;;;;;;10.65;4.20;;;;;;;;;;5100728;27;20201;-72
2021/12/30 07:48:38;;;;;;;8.63;3.95;;;;;;;;;;5119659;27;20413;-72
2021/12/30 07:51:04;;;;;;;7.72;4.15;;;;;;;;;;5113472;27;20029;-72
2021/12/30 07:53:31;;;;;;;7.68;2.40;;;;;;;;;;5111718;27;20027;-71
2021/12/30 07:55:57;;;;;;;4.18;1.65;;;;;;;;;;5115755;27;20500;-72
2021/12/30 07:58:24;;;;;;;3.97;1.90;;;;;;;;;;5114535;27;20035;-72
2021/12/30 08:00:50;;;;;;;4.85;1.98;;;;;;;;;;5113857;27;20026;-72
2021/12/30 08:03:16;;;;;;;4.07;1.65;;;;;;;;;;5113553;27;20039;-72
2021/12/30 08:05:43;;;;;;;9.05;1.77;;;;;;;;;;5111314;27;20020;-72
2021/12/30 08:08:09;;;;;;;4.85;1.77;;;;;;;;;;5113700;27;20024;-72
2021/12/30 08:10:35;;;;;;;4.82;1.88;;;;;;;;;;5114892;27;20420;-72
2021/12/30 08:13:02;;;;;;;6.82;2.10;;;;;;;;;;5113534;27;20026;-72
2021/12/30 08:15:29;;;;;;;4.95;2.70;;;;;;;;;;5113711;27;20020;-72
2021/12/30 08:17:55;;;;;;;4.65;2.47;;;;;;;;;;5113236;27;20019;-72
2021/12/30 08:20:22;;;;;;;7.18;2.40;;;;;;;;;;5109345;28;20034;-72
2021/12/30 08:22:50;;;;;;;4.25;2.17;;;;;;;;;;5116260;27;20038;-72
2021/12/30 08:25:16;;;;;;;10.40;3.05;;;;;;;;;;5113244;27;20023;-72
2021/12/30 08:27:43;;;;;;;4.75;2.05;;;;;;;;;;5113329;27;20028;-72
2021/12/30 08:30:11;;;;;;;11.85;2.20;;;;;;;;;;5113258;28;20492;-72
2021/12/30 08:32:37;;;;;;;3.13;1.70;;;;;;;;;;5111801;28;20507;-72
2021/12/30 08:35:06;;;;;;;3.10;1.20;;;;;;;;;;5113706;28;20022;-72
2021/12/30 08:37:33;;;;;;;3.50;1.27;;;;;;;;;;5114190;28;20034;-72
2021/12/30 08:40:02;;;;;;;5.00;1.60;;;;;;;;;;5113420;28;20019;-72
2021/12/30 08:42:29;;;;;;;3.53;1.90;;;;;;;;;;5113087;28;20068;-72
2021/12/30 08:44:56;;;;;;;6.10;1.63;;;;;;;;;;5112955;28;20021;-72
2021/12/30 08:47:23;;;;;;;2.47;1.75;;;;;;;;;;5108785;28;20043;-72
2021/12/30 08:49:49;;;;;;;3.83;1.70;;;;;;;;;;5111344;28;20028;-72
2021/12/30 08:52:17;;;;;;;4.25;1.55;;;;;;;;;;5108314;28;20505;-73
2021/12/30 08:54:44;;;;;;;4.63;1.50;;;;;;;;;;5108195;28;20023;-72
2021/12/30 08:57:11;;;;;;;2.35;1.35;;;;;;;;;;5108223;28;20024;-72
2021/12/30 08:59:38;;;;;;;6.35;1.60;;;;;;;;;;5108323;28;20397;-72
2021/12/30 09:02:05;;;;;;;4.38;1.15;;;;;;;;;;5110396;28;20393;-72
2021/12/30 09:04:31;;;;;;;5.30;1.38;;;;;;;;;;5109108;28;20024;-72
2021/12/30 09:06:58;;;;;;;2.38;1.10;;;;;;;;;;5108267;28;20023;-72
2021/12/30 09:09:25;;;;;;;1.90;1.10;;;;;;;;;;5108350;28;20035;-72
2021/12/30 09:11:51;;;;;;;2.03;1.00;;;;;;;;;;5109754;28;20012;-72
2021/12/30 09:14:18;;;;;;;1.35;0.90;;;;;;;;;;5109189;28;20054;-72
2021/12/30 09:16:44;;;;;;;2.00;1.00;;;;;;;;;;5110604;28;20504;-72
2021/12/30 09:19:11;;;;;;;2.65;0.90;;;;;;;;;;5107749;28;20038;-72
2021/12/30 09:21:40;;;;;;;1.20;0.88;;;;;;;;;;5107996;28;20032;-72
2021/12/30 09:24:07;;;;;;;2.22;0.98;;;;;;;;;;5107972;28;20020;-72
2021/12/30 09:26:34;;;;;;;2.03;0.80;;;;;;;;;;5089624;28;20035;-72
2021/12/30 09:29:00;;;;;;;1.67;0.80;;;;;;;;;;5110710;28;20049;-72
2021/12/30 09:31:28;;;;;;;1.95;0.68;;;;;;;;;;5091929;28;20050;-72
2021/12/30 09:33:57;;;;;;;1.33;0.40;;;;;;;;;;5107597;28;20026;-73
2021/12/30 09:36:27;;;;;;;2.53;0.70;;;;;;;;;;5111723;28;20424;-72
2021/12/30 09:38:53;;;;;;;2.80;0.70;;;;;;;;;;5111836;28;20026;-72
2021/12/30 09:41:20;;;;;;;0.40;0.40;;;;;;;;;;5112563;28;20024;-72
2021/12/30 09:43:46;;;;;;;1.02;0.70;;;;;;;;;;5114520;28;20030;-72
2021/12/30 09:46:13;;;;;;;1.70;0.75;;;;;;;;;;5121911;27;20091;-72
2021/12/30 09:48:40;;;;;;;1.30;1.00;;;;;;;;;;5121964;27;20034;-72
2021/12/30 09:51:08;;;;;;;1.45;1.00;;;;;;;;;;5117224;27;20015;-72
2021/12/30 09:53:34;;;;;;;0.98;0.80;;;;;;;;;;5112942;27;20024;-72
2021/12/30 09:56:01;;;;;;;0.80;0.70;;;;;;;;;;5117622;27;20023;-72
2021/12/30 09:58:28;;;;;;;4.35;0.80;;;;;;;;;;5117102;27;20520;-72
2021/12/30 10:00:55;;;;;;;4.18;1.00;;;;;;;;;;5115859;27;20023;-73
2021/12/30 10:03:21;;;;;;;1.88;0.88;;;;;;;;;;5117068;27;20027;-72
2021/12/30 10:05:47;;;;;;;1.88;0.80;;;;;;;;;;5114394;27;20382;-72
2021/12/30 10:08:19;;;;;;;1.77;0.57;;;;;;;;;;5114576;27;20030;-72
2021/12/30 10:10:47;;;;;;;2.20;0.60;;;;;;;;;;5118451;27;20025;-73
2021/12/30 10:13:16;;;;;;;1.45;0.60;;;;;;;;;;5116013;27;20076;-72
2021/12/30 10:15:44;;;;;;;2.72;0.50;;;;;;;;;;5115652;27;20011;-72
2021/12/30 10:18:10;;;;;;;5.45;0.85;;;;;;;;;;5115475;27;20072;-73
2021/12/30 10:20:39;;;;;;;1.83;0.73;;;;;;;;;;5112590;27;20389;-72
2021/12/30 10:23:09;;;;;;;2.03;0.70;;;;;;;;;;5115938;27;20117;-73
2021/12/30 10:25:37;;;;;;;0.77;0.65;;;;;;;;;;5116630;27;20030;-70
2021/12/30 10:28:23;;;;;;;1.40;0.80;;;;;;;;;;5115679;27;20016;-72
2021/12/30 10:30:51;;;;;;;1.30;0.60;;;;;;;;;;5116722;27;20035;-72
2021/12/30 10:33:19;;;;;;;2.10;0.70;;;;;;;;;;5115118;27;20023;-72
2021/12/30 10:35:46;;;;;;;1.50;0.73;;;;;;;;;;5113820;27;20091;-72
2021/12/30 10:38:14;;;;;;;3.58;0.50;;;;;;;;;;5114291;27;20028;-72
2021/12/30 10:40:52;;;;;;;1.83;0.57;;;;;;;;;;5117154;27;20015;-72
2021/12/30 10:43:33;;;;;;;1.13;0.50;;;;;;;;;;5115002;27;20040;-73
2021/12/30 10:46:04;;;;;;;1.08;0.60;;;;;;;;;;5114164;27;20046;-72
2021/12/30 10:48:31;;;;;;;4.43;0.50;;;;;;;;;;5110178;28;20489;-72
2021/12/30 10:51:18;;;;;;;1.75;0.40;;;;;;;;;;5110490;28;20416;-72
2021/12/30 10:53:44;;;;;;;0.68;0.47;;;;;;;;;;5097067;28;20494;-72
2021/12/30 10:56:21;;;;;;;0.50;0.50;;;;;;;;;;5112300;28;20023;-72
2021/12/30 10:58:47;;;;;;;0.40;0.40;;;;;;;;;;5095333;28;20042;-72
2021/12/30 11:01:15;;;;;;;0.57;0.40;;;;;;;;;;5091542;28;20030;-72
2021/12/30 11:03:42;;;;;;;1.52;0.50;;;;;;;;;;5109824;28;20028;-72
2021/12/30 11:06:19;;;;;;;0.40;0.40;;;;;;;;;;5110451;28;20015;-72
2021/12/30 11:08:49;;;;;;;2.13;0.40;;;;;;;;;;5111316;28;20478;-73
2021/12/30 11:11:25;;;;;;;2.30;0.50;;;;;;;;;;5111238;28;20076;-72
2021/12/30 11:14:05;;;;;;;0.30;0.30;;;;;;;;;;5113574;28;20038;-72
2021/12/30 11:16:32;;;;;;;3.45;0.40;;;;;;;;;;5112842;28;20037;-72
2021/12/30 11:18:59;;;;;;;0.32;0.32;;;;;;;;;;5109741;28;20019;-72
2021/12/30 11:21:41;;;;;;;0.80;0.40;;;;;;;;;;5109627;28;20020;-72
2021/12/30 11:24:08;;;;;;;0.88;0.40;;;;;;;;;;5109252;28;20015;-72
2021/12/30 11:26:34;;;;;;;0.52;0.30;;;;;;;;;;5109686;28;20026;-73
2021/12/30 11:29:02;;;;;;;0.82;0.52;;;;;;;;;;5111930;28;20035;-72
2021/12/30 11:31:30;;;;;;;0.85;0.68;;;;;;;;;;5110894;28;20389;-72
2021/12/30 11:33:57;;;;;;;0.85;0.50;;;;;;;;;;5109228;28;20385;-73
2021/12/30 11:36:24;;;;;;;2.40;0.50;;;;;;;;;;5109524;28;20508;-73
2021/12/30 11:38:51;;;;;;;0.55;0.40;;;;;;;;;;5109383;28;20019;-73
2021/12/30 11:41:23;;;;;;;1.00;0.43;;;;;;;;;;5110417;28;20088;-72
2021/12/30 11:43:50;;;;;;;0.40;0.40;;;;;;;;;;5112465;28;20031;-72
2021/12/30 11:46:35;;;;;;;1.63;0.50;;;;;;;;;;5119821;27;20050;-72
2021/12/30 11:49:02;;;;;;;1.17;0.55;;;;;;;;;;5099768;28;20038;-72
2021/12/30 11:51:49;;;;;;;3.17;0.40;;;;;;;;;;5113664;27;20496;-72
2021/12/30 11:54:34;;;;;;;0.80;0.40;;;;;;;;;;5113907;27;20099;-73
2021/12/30 11:57:19;;;;;;;0.55;0.45;;;;;;;;;;5107836;28;20011;-73
2021/12/30 11:59:45;;;;;;;0.68;0.45;;;;;;;;;;5125427;27;20077;-73
2021/12/30 12:02:26;;;;;;;0.95;0.50;;;;;;;;;;5113004;27;20038;-72
2021/12/30 12:04:52;;;;;;;;;;;;;;;;;;5117683;27;20034;-72
2021/12/30 12:07:19;;;;;;;1.67;0.40;;;;;;;;;;5113494;27;20259;-72
2021/12/30 12:09:45;;;;;;;0.95;0.60;;;;;;;;;;5113629;27;20020;-72
2021/12/30 12:12:13;;;;;;;0.50;0.35;;;;;;;;;;5113146;27;20388;-72
2021/12/30 12:14:55;;;;;;;0.50;0.40;;;;;;;;;;5109549;27;20024;-72
2021/12/30 12:17:38;;;;;;;0.65;0.60;;;;;;;;;;5110096;28;20421;-72
2021/12/30 12:20:17;;;;;;;0.40;0.40;;;;;;;;;;5106938;27;20404;-72
2021/12/30 12:22:44;;;;;;;0.40;0.40;;;;;;;;;;5115664;27;20588;-72
2021/12/30 12:25:12;;;;;;;1.95;0.60;;;;;;;;;;5113350;27;20019;-72
2021/12/30 12:27:45;;;;;;;1.67;0.50;;;;;;;;;;5114454;27;20104;-72
2021/12/30 12:30:21;;;;;;;0.95;0.50;;;;;;;;;;5113326;28;20378;-72
2021/12/30 12:32:47;;;;;;;2.05;0.63;;;;;;;;;;5111606;28;20029;-72
2021/12/30 12:35:13;;;;;;;0.80;0.60;;;;;;;;;;5112114;27;20198;-72
2021/12/30 12:37:44;;;;;;;0.70;0.50;;;;;;;;;;5096792;28;20035;-72
2021/12/30 12:40:13;;;;;;;4.07;0.50;;;;;;;;;;5112979;28;20459;-73
2021/12/30 12:42:51;;;;;;;0.63;0.40;;;;;;;;;;5112591;28;20113;-72
2021/12/30 12:45:20;;;;;;;0.85;0.60;;;;;;;;;;5115048;28;20035;-72
2021/12/30 12:47:48;;;;;;;0.73;0.60;;;;;;;;;;5129049;28;20031;-73
2021/12/30 12:50:15;;;;;;;1.25;0.55;;;;;;;;;;5130812;28;20020;-72
2021/12/30 12:52:42;;;;;;;1.65;0.60;;;;;;;;;;5131466;28;20039;-72
2021/12/30 12:55:12;;;;;;;2.22;0.88;;;;;;;;;;5128740;28;20041;-72
2021/12/30 12:57:41;;;;;;;1.67;0.90;;;;;;;;;;5128682;28;20025;-72
2021/12/30 13:00:08;;;;;;;0.90;0.80;;;;;;;;;;5128821;28;20011;-72
2021/12/30 13:02:35;;;;;;;2.15;1.00;;;;;;;;;;5128165;28;20506;-72
2021/12/30 13:05:11;;;;;;;1.08;0.80;;;;;;;;;;5131221;28;20026;-72
2021/12/30 13:07:38;;;;;;;2.45;1.17;;;;;;;;;;5130445;28;20029;-72
2021/12/30 13:10:04;;;;;;;2.40;1.30;;;;;;;;;;5130439;27;20023;-73
2021/12/30 13:12:38;;;;;;;1.50;0.90;;;;;;;;;;5132530;27;20023;-72
2021/12/30 13:15:15;;;;;;;2.25;0.90;;;;;;;;;;5132537;27;20083;-72
2021/12/30 13:17:43;;;;;;;2.45;0.93;;;;;;;;;;5132678;27;20031;-72
2021/12/30 13:20:12;;;;;;;1.83;1.27;;;;;;;;;;5135172;27;20034;-72
2021/12/30 13:22:39;;;;;;;1.73;1.33;;;;;;;;;;5134062;27;20035;-73
2021/12/30 13:25:06;;;;;;;1.50;1.17;;;;;;;;;;5131916;27;20019;-73
2021/12/30 13:27:40;;;;;;;1.45;0.98;;;;;;;;;;5132494;27;20038;-73
2021/12/30 13:30:13;;;;;;;1.42;1.08;;;;;;;;;;5132347;27;20008;-73
2021/12/30 13:32:41;;;;;;;4.65;1.05;;;;;;;;;;5132338;27;20020;-71
2021/12/30 13:35:09;;;;;;;2.67;1.20;;;;;;;;;;5135125;27;20080;-73
2021/12/30 13:37:36;;;;;;;1.95;1.27;;;;;;;;;;5133763;27;20030;-72
2021/12/30 13:40:14;;;;;;;1.23;0.93;;;;;;;;;;5132012;27;20468;-73
2021/12/30 13:42:46;;;;;;;1.02;0.80;;;;;;;;;;5131787;27;20155;-72
2021/12/30 13:45:12;;;;;;;1.23;0.90;;;;;;;;;;5133485;27;20047;-72
2021/12/30 13:47:39;;;;;;;1.73;0.80;;;;;;;;;;5132026;27;20421;-72
2021/12/30 13:50:08;;;;;;;1.50;1.00;;;;;;;;;;5134566;27;20026;-72
2021/12/30 13:52:36;;;;;;;1.02;0.88;;;;;;;;;;5132703;27;20027;-72
2021/12/30 13:55:12;;;;;;;0.93;0.63;;;;;;;;;;5131076;27;20052;-72
2021/12/30 13:57:38;;;;;;;1.15;1.00;;;;;;;;;;5116106;27;20035;-73
2021/12/30 14:00:10;;;;;;;0.80;0.63;;;;;;;;;;5131331;27;20019;-72
2021/12/30 14:02:36;;;;;;;0.95;0.63;;;;;;;;;;5131523;27;20084;-72
2021/12/30 14:05:14;;;;;;;2.55;0.90;;;;;;;;;;5134104;27;20019;-72
2021/12/30 14:07:47;;;;;;;0.80;0.80;;;;;;;;;;5135250;27;20015;-72
2021/12/30 14:10:17;;;;;;;0.70;0.65;;;;;;;;;;5130402;27;20031;-73
2021/12/30 14:13:01;;;;;;;2.13;0.93;;;;;;;;;;5131158;27;20493;-72
2021/12/30 14:15:37;;;;;;;3.10;1.02;;;;;;;;;;5131017;27;20026;-72
2021/12/30 14:18:05;;;;;;;1.80;1.30;;;;;;;;;;5131488;27;20027;-72
2021/12/30 14:20:32;;;;;;;0.77;0.77;;;;;;;;;;5130847;27;20020;-72
2021/12/30 14:22:59;;;;;;;2.55;1.20;;;;;;;;;;5133838;27;20039;-72
2021/12/30 14:25:37;;;;;;;1.20;1.10;;;;;;;;;;5133465;27;20035;-72
2021/12/30 14:28:24;;;;;;;1.90;1.30;;;;;;;;;;5130725;27;20027;-72
2021/12/30 14:30:51;;;;;;;2.13;1.50;;;;;;;;;;5130778;27;20105;-72
2021/12/30 14:33:25;;;;;;;2.15;1.60;;;;;;;;;;5130598;27;20027;-73
2021/12/30 14:36:10;;;;;;;2.35;1.25;;;;;;;;;;5131246;27;20034;-72
2021/12/30 14:38:36;;;;;;;1.05;0.93;;;;;;;;;;5117784;27;20392;-72
2021/12/30 14:41:16;;;;;;;1.08;0.98;;;;;;;;;;5133401;27;20045;-72
2021/12/30 14:44:00;;;;;;;1.30;0.90;;;;;;;;;;5132927;27;20039;-72
2021/12/30 14:46:27;;;;;;;1.77;0.95;;;;;;;;;;5131390;27;20043;-72
2021/12/30 14:48:57;;;;;;;1.90;0.95;;;;;;;;;;5130505;27;20019;-72
2021/12/30 14:51:24;;;;;;;1.20;1.00;;;;;;;;;;5112605;27;20041;-72